createdAt,value
2023-01-20T00:02:14.161Z,22.13
2023-01-20T00:04:40.787Z,21.75
2023-01-20T00:07:07.285Z,22.14
2023-01-20T00:09:34.167Z,22.13
2023-01-20T00:12:00.677Z,22.09
2023-01-20T00:14:27.770Z,22.14
2023-01-20T00:16:58.331Z,22.11
2023-01-20T00:19:24.894Z,22.14
2023-01-20T00:21:51.399Z,22.10
2023-01-20T00:24:18.049Z,21.94
2023-01-20T00:26:44.680Z,22.15
2023-01-20T00:29:11.565Z,22.00
2023-01-20T00:31:38.580Z,22.08
2023-01-20T00:34:05.403Z,22.16
2023-01-20T00:36:33.105Z,22.17
2023-01-20T00:39:01.716Z,22.16
2023-01-20T00:41:28.293Z,22.10
2023-01-20T00:43:55.142Z,22.16
2023-01-20T00:46:23.184Z,22.17
2023-01-20T00:48:49.979Z,22.13
2023-01-20T00:51:16.559Z,22.01
2023-01-20T00:53:43.277Z,22.18
2023-01-20T00:56:09.873Z,21.96
2023-01-20T00:58:36.485Z,22.17
2023-01-20T01:01:03.219Z,22.09
2023-01-20T01:03:33.601Z,22.17
2023-01-20T01:06:26.301Z,22.16
2023-01-20T01:08:53.097Z,22.16
2023-01-20T01:11:19.640Z,22.16
2023-01-20T01:13:46.241Z,22.11
2023-01-20T01:16:15.241Z,22.15
2023-01-20T01:18:42.748Z,22.15
2023-01-20T01:21:11.555Z,22.15
2023-01-20T01:23:38.197Z,22.13
2023-01-20T01:26:04.943Z,21.72
2023-01-20T01:28:31.780Z,21.81
2023-01-20T01:31:03.187Z,22.15
2023-01-20T01:33:33.185Z,22.16
2023-01-20T01:36:01.657Z,22.14
2023-01-20T01:38:28.473Z,22.01
2023-01-20T01:40:56.044Z,22.15
2023-01-20T01:45:56.728Z,22.11
2023-01-20T01:48:31.525Z,22.14
2023-01-20T01:51:27.110Z,22.14
2023-01-20T01:53:57.719Z,21.87
2023-01-20T01:56:26.890Z,22.14
2023-01-20T01:58:58.427Z,22.14
2023-01-20T02:01:26.387Z,22.10
2023-01-20T02:04:14.317Z,22.14
2023-01-20T02:06:45.118Z,21.94
2023-01-20T02:09:12.363Z,22.13
2023-01-20T02:11:45.364Z,22.15
2023-01-20T02:14:12.151Z,22.14
2023-01-20T02:16:53.570Z,22.01
2023-01-20T02:19:57.892Z,22.13
2023-01-20T02:22:42.869Z,22.13
2023-01-20T02:25:37.015Z,22.12
2023-01-20T02:28:48.507Z,22.11
2023-01-20T02:31:27.091Z,22.11
2023-01-20T02:34:01.038Z,22.11
2023-01-20T02:36:34.044Z,21.98
2023-01-20T02:39:13.535Z,22.10
2023-01-20T02:42:06.399Z,22.10
2023-01-20T02:44:44.866Z,21.93
2023-01-20T02:47:23.618Z,22.10
2023-01-20T02:50:04.274Z,22.05
2023-01-20T02:52:41.206Z,22.01
2023-01-20T02:55:17.921Z,22.11
2023-01-20T02:57:50.469Z,21.99
2023-01-20T03:00:35.895Z,21.88
2023-01-20T03:03:07.530Z,22.10
2023-01-20T03:05:39.944Z,21.95
2023-01-20T03:08:10.568Z,21.86
2023-01-20T03:10:39.192Z,22.09
2023-01-20T03:13:22.266Z,22.09
2023-01-20T03:16:22.280Z,22.08
2023-01-20T03:18:50.659Z,21.93
2023-01-20T03:21:17.375Z,22.08
2023-01-20T03:23:50.577Z,22.07
2023-01-20T03:26:19.746Z,22.07
2023-01-20T03:28:48.499Z,21.92
2023-01-20T03:31:26.881Z,21.85
2023-01-20T03:33:57.741Z,22.05
2023-01-20T03:36:28.188Z,22.07
2023-01-20T03:38:56.785Z,22.02
2023-01-20T03:41:40.245Z,22.04
2023-01-20T03:44:12.616Z,22.04
2023-01-20T03:46:42.941Z,22.04
2023-01-20T03:49:39.265Z,22.04
2023-01-20T03:52:47.440Z,21.99
2023-01-20T03:55:23.094Z,22.02
2023-01-20T03:58:04.653Z,21.85
2023-01-20T04:00:38.103Z,22.00
2023-01-20T04:03:15.230Z,21.74
2023-01-20T04:05:44.466Z,21.69
2023-01-20T04:08:13.610Z,22.00
2023-01-20T04:10:43.228Z,21.85
2023-01-20T04:13:09.924Z,21.93
2023-01-20T04:15:39.978Z,21.87
2023-01-20T04:18:33.757Z,21.98
2023-01-20T04:21:02.394Z,21.98
2023-01-20T04:23:45.159Z,21.96
2023-01-20T04:26:11.736Z,21.95
2023-01-20T04:28:38.327Z,21.91
2023-01-20T04:31:05.273Z,21.94
2023-01-20T04:33:31.930Z,21.81
2023-01-20T04:35:58.520Z,21.93
2023-01-20T04:38:25.060Z,21.80
2023-01-20T04:40:51.795Z,21.74
2023-01-20T04:43:18.509Z,21.83
2023-01-20T04:45:45.202Z,21.84
2023-01-20T04:48:12.152Z,21.80
2023-01-20T04:50:40.826Z,21.61
2023-01-20T04:53:11.477Z,21.87
2023-01-20T04:55:38.193Z,21.85
2023-01-20T04:58:04.781Z,21.56
2023-01-20T05:00:31.405Z,21.47
2023-01-20T05:02:59.013Z,21.68
2023-01-20T05:05:25.815Z,21.81
2023-01-20T05:07:53.422Z,21.81
2023-01-20T05:10:20.377Z,21.63
2023-01-20T05:12:47.263Z,21.78
2023-01-20T05:15:14.179Z,21.53
2023-01-20T05:17:41.114Z,21.77
2023-01-20T05:20:08.885Z,21.58
2023-01-20T05:22:35.513Z,21.74
2023-01-20T05:25:02.142Z,21.74
2023-01-20T05:27:28.821Z,21.48
2023-01-20T05:29:55.532Z,21.72
2023-01-20T05:32:22.098Z,21.67
2023-01-20T05:34:48.857Z,21.62
2023-01-20T05:37:17.955Z,21.66
2023-01-20T05:39:44.563Z,21.31
2023-01-20T05:42:11.112Z,21.55
2023-01-20T05:44:37.767Z,21.67
2023-01-20T05:47:04.608Z,21.63
2023-01-20T05:49:31.311Z,21.62
2023-01-20T05:51:57.930Z,21.52
2023-01-20T05:54:26.090Z,21.45
2023-01-20T05:56:52.810Z,21.31
2023-01-20T05:59:19.468Z,21.62
2023-01-20T06:01:46.005Z,21.41
2023-01-20T06:04:12.630Z,21.52
2023-01-20T06:06:39.384Z,21.61
2023-01-20T06:09:06.664Z,21.23
2023-01-20T06:11:33.364Z,21.45
2023-01-20T06:13:59.999Z,21.51
2023-01-20T06:16:26.567Z,21.45
2023-01-20T06:18:53.292Z,21.16
2023-01-20T06:21:19.841Z,21.43
2023-01-20T06:23:46.580Z,21.50
2023-01-20T06:26:14.393Z,21.52
2023-01-20T06:28:41.222Z,21.56
2023-01-20T06:31:30.748Z,21.56
2023-01-20T06:33:57.516Z,21.50
2023-01-20T06:36:24.274Z,21.46
2023-01-20T06:38:51.071Z,21.43
2023-01-20T06:41:19.544Z,21.54
2023-01-20T06:43:46.552Z,21.45
2023-01-20T06:46:15.247Z,21.52
2023-01-20T06:48:42.993Z,21.52
2023-01-20T06:51:17.830Z,21.47
2023-01-20T06:53:44.583Z,21.51
2023-01-20T06:56:13.040Z,21.39
2023-01-20T06:58:40.326Z,21.52
2023-01-20T07:01:13.270Z,21.31
2023-01-20T07:03:43.497Z,21.52
2023-01-20T07:06:30.410Z,21.60
2023-01-20T07:08:58.977Z,21.64
2023-01-20T07:11:26.357Z,21.67
2023-01-20T07:13:53.387Z,21.56
2023-01-20T07:16:19.987Z,21.73
2023-01-20T07:18:51.263Z,21.78
2023-01-20T07:21:18.544Z,21.60
2023-01-20T07:23:45.632Z,21.71
2023-01-20T07:26:15.505Z,21.80
2023-01-20T07:28:42.431Z,21.91
2023-01-20T07:31:20.405Z,21.70
2023-01-20T07:33:47.753Z,21.95
2023-01-20T07:36:15.422Z,21.96
2023-01-20T07:38:42.705Z,21.83
2023-01-20T07:41:16.580Z,21.97
2023-01-20T07:46:27.389Z,22.00
2023-01-20T07:48:55.540Z,21.80
2023-01-20T07:51:22.185Z,22.02
2023-01-20T07:53:51.643Z,22.05
2023-01-20T07:56:27.593Z,22.05
2023-01-20T07:58:55.186Z,22.09
2023-01-20T08:01:26.001Z,22.11
2023-01-20T08:03:53.098Z,22.13
2023-01-20T08:06:22.258Z,22.06
2023-01-20T08:08:49.384Z,22.16
2023-01-20T08:11:18.157Z,22.19
2023-01-20T08:13:45.500Z,22.20
2023-01-20T08:16:14.967Z,22.13
2023-01-20T08:18:42.337Z,22.23
2023-01-20T08:21:18.226Z,22.23
2023-01-20T08:23:44.830Z,22.22
2023-01-20T08:26:11.348Z,22.23
2023-01-20T08:28:38.091Z,22.15
2023-01-20T08:31:16.121Z,22.03
2023-01-20T08:33:43.980Z,22.15
2023-01-20T08:36:14.149Z,22.25
2023-01-20T08:38:41.252Z,22.24
2023-01-20T08:41:09.586Z,22.25
2023-01-20T08:43:36.614Z,22.25
2023-01-20T08:46:07.351Z,22.26
2023-01-20T08:48:35.245Z,22.26
2023-01-20T08:51:09.810Z,22.23
2023-01-20T08:53:36.705Z,22.24
2023-01-20T08:56:04.131Z,22.26
2023-01-20T08:58:30.930Z,22.13
2023-01-20T09:00:58.411Z,22.28
2023-01-20T09:03:25.489Z,22.27
2023-01-20T09:05:52.648Z,22.28
2023-01-20T09:08:20.376Z,22.27
2023-01-20T09:10:46.985Z,22.21
2023-01-20T09:13:13.584Z,22.29
2023-01-20T09:15:40.253Z,22.30
2023-01-20T09:18:06.944Z,22.31
2023-01-20T09:20:33.493Z,22.26
2023-01-20T09:23:03.201Z,22.30
2023-01-20T09:25:30.075Z,22.35
2023-01-20T09:28:00.428Z,22.36
2023-01-20T09:30:27.488Z,22.35
2023-01-20T09:32:56.296Z,22.39
2023-01-20T09:35:24.042Z,22.40
2023-01-20T09:38:09.226Z,22.35
2023-01-20T09:41:02.634Z,22.34
2023-01-20T09:43:57.797Z,22.39
2023-01-20T09:46:29.180Z,22.43
2023-01-20T09:49:32.898Z,22.42
2023-01-20T09:52:21.350Z,22.44
2023-01-20T09:54:54.653Z,22.45
2023-01-20T09:57:24.956Z,22.47
2023-01-20T10:00:07.644Z,22.48
2023-01-20T10:02:36.396Z,22.49
2023-01-20T10:05:13.438Z,22.51
2023-01-20T10:07:48.217Z,22.52
2023-01-20T10:10:50.766Z,22.53
2023-01-20T10:13:31.488Z,22.54
2023-01-20T10:16:04.842Z,22.45
2023-01-20T10:18:47.652Z,22.49
2023-01-20T10:21:29.533Z,22.56
2023-01-20T10:24:00.289Z,22.50
2023-01-20T10:26:42.375Z,22.47
2023-01-20T10:29:32.341Z,22.56
2023-01-20T10:32:01.367Z,22.57
2023-01-20T10:34:37.220Z,22.53
2023-01-20T10:37:09.932Z,22.57
2023-01-20T10:39:58.394Z,22.57
2023-01-20T10:42:28.350Z,22.56
2023-01-20T10:44:55.390Z,22.56
2023-01-20T10:47:35.458Z,22.54
2023-01-20T10:50:17.227Z,22.57
2023-01-20T10:53:00.403Z,22.57
2023-01-20T10:55:57.904Z,22.57
2023-01-20T10:58:30.081Z,22.57
2023-01-20T11:00:59.918Z,22.29
2023-01-20T11:03:35.631Z,22.55
2023-01-20T11:06:03.205Z,22.57
2023-01-20T11:08:30.392Z,22.55
2023-01-20T11:11:00.762Z,22.56
2023-01-20T11:13:27.430Z,22.57
2023-01-20T11:15:59.551Z,22.57
2023-01-20T11:18:32.076Z,22.59
2023-01-20T11:21:04.958Z,22.59
2023-01-20T11:23:39.943Z,22.51
2023-01-20T11:26:11.970Z,22.58
2023-01-20T11:28:44.570Z,22.60
2023-01-20T11:31:11.551Z,22.56
2023-01-20T11:33:38.164Z,22.50
2023-01-20T11:36:18.837Z,22.60
2023-01-20T11:38:48.149Z,22.60
2023-01-20T11:41:19.435Z,22.60
2023-01-20T11:43:46.113Z,22.60
2023-01-20T11:46:16.321Z,22.60
2023-01-20T11:48:43.017Z,22.60
2023-01-20T11:51:21.188Z,22.59
2023-01-20T11:53:48.360Z,22.57
2023-01-20T11:56:22.284Z,22.53
2023-01-20T11:58:54.554Z,22.52
2023-01-20T12:01:26.036Z,22.57
2023-01-20T12:04:14.730Z,22.57
2023-01-20T12:06:55.833Z,22.55
2023-01-20T12:09:28.761Z,22.57
2023-01-20T12:12:37.545Z,22.56
2023-01-20T12:15:16.821Z,22.51
2023-01-20T12:17:46.311Z,22.54
2023-01-20T12:20:24.759Z,22.39
2023-01-20T12:23:13.161Z,22.53
2023-01-20T12:25:56.849Z,22.50
2023-01-20T12:28:28.287Z,22.53
2023-01-20T12:31:00.521Z,22.53
2023-01-20T12:33:35.282Z,22.53
2023-01-20T12:36:26.772Z,22.54
2023-01-20T12:39:17.934Z,22.53
2023-01-20T12:41:47.404Z,22.53
2023-01-20T12:44:13.834Z,22.52
2023-01-20T12:46:50.675Z,22.46
2023-01-20T12:49:36.541Z,22.52
2023-01-20T12:52:39.119Z,22.52
2023-01-20T12:55:37.332Z,22.51
2023-01-20T12:58:17.742Z,22.49
2023-01-20T13:01:11.187Z,22.49
2023-01-20T13:03:56.254Z,22.47
2023-01-20T13:06:53.772Z,22.47
2023-01-20T13:09:45.150Z,22.44
2023-01-20T13:12:11.639Z,22.43
2023-01-20T13:15:01.979Z,22.42
2023-01-20T13:17:43.794Z,22.31
2023-01-20T13:20:25.114Z,22.42
2023-01-20T13:22:53.474Z,22.43
2023-01-20T13:25:21.670Z,22.39
2023-01-20T13:27:51.175Z,22.42
2023-01-20T13:30:51.568Z,22.45
2023-01-20T13:33:38.292Z,22.45
2023-01-20T13:36:22.825Z,22.45
2023-01-20T13:39:10.416Z,22.41
2023-01-20T13:41:51.965Z,22.44
2023-01-20T13:44:37.774Z,22.44
2023-01-20T13:47:08.596Z,22.35
2023-01-20T13:49:43.901Z,22.45
2023-01-20T13:52:11.892Z,22.31
2023-01-20T13:54:43.111Z,22.45
2023-01-20T13:57:27.868Z,22.47
2023-01-20T13:59:55.904Z,22.45
2023-01-20T14:02:28.804Z,22.47
2023-01-20T14:04:56.264Z,22.48
2023-01-20T14:07:25.602Z,22.48
2023-01-20T14:09:54.074Z,22.48
2023-01-20T14:12:20.920Z,22.49
2023-01-20T14:14:49.370Z,22.50
2023-01-20T14:17:22.064Z,22.41
2023-01-20T14:19:50.805Z,22.51
2023-01-20T14:22:24.916Z,22.50
2023-01-20T14:24:53.734Z,22.50
2023-01-20T14:27:32.003Z,22.50
2023-01-20T14:30:15.917Z,22.41
2023-01-20T14:32:42.767Z,22.43
2023-01-20T14:35:18.554Z,22.50
2023-01-20T14:37:50.308Z,22.45
2023-01-20T14:40:23.391Z,22.50
2023-01-20T14:43:02.422Z,22.40
2023-01-20T14:45:32.292Z,22.50
2023-01-20T14:48:01.293Z,22.50
2023-01-20T14:50:28.808Z,22.31
2023-01-20T14:52:56.163Z,22.04
2023-01-20T14:55:34.131Z,21.94
2023-01-20T14:58:07.075Z,21.89
2023-01-20T15:00:34.638Z,21.90
2023-01-20T15:03:10.999Z,21.91
2023-01-20T15:05:41.803Z,21.92
2023-01-20T15:08:11.412Z,21.97
2023-01-20T15:10:38.946Z,21.99
2023-01-20T15:13:21.871Z,21.93
2023-01-20T15:15:48.547Z,22.05
2023-01-20T15:18:17.406Z,22.08
2023-01-20T15:20:48.931Z,22.10
2023-01-20T15:23:27.503Z,22.11
2023-01-20T15:25:56.469Z,22.09
2023-01-20T15:28:27.441Z,22.13
2023-01-20T15:33:25.744Z,22.02
2023-01-20T15:36:13.678Z,22.15
2023-01-20T15:38:40.330Z,22.09
2023-01-20T15:41:06.841Z,22.16
2023-01-20T15:43:33.380Z,22.16
2023-01-20T15:45:59.983Z,22.11
2023-01-20T15:48:26.662Z,22.16
2023-01-20T15:50:53.196Z,22.15
2023-01-20T15:53:19.841Z,22.18
2023-01-20T15:55:50.903Z,22.17
2023-01-20T15:58:22.486Z,22.15
2023-01-20T16:00:49.364Z,22.17
2023-01-20T16:03:19.165Z,22.17
2023-01-20T16:05:48.263Z,22.17
2023-01-20T16:08:20.523Z,22.11
2023-01-20T16:10:47.595Z,22.15
2023-01-20T16:13:15.098Z,22.10
2023-01-20T16:15:42.961Z,22.15
2023-01-20T16:18:14.867Z,22.15
2023-01-20T16:20:42.740Z,22.14
2023-01-20T16:23:10.015Z,22.08
2023-01-20T16:25:38.471Z,22.10
2023-01-20T16:28:14.555Z,22.13
2023-01-20T16:30:41.704Z,22.09
2023-01-20T16:33:20.400Z,22.12
2023-01-20T16:38:17.898Z,22.10
2023-01-20T16:40:51.371Z,22.09
2023-01-20T16:43:21.819Z,22.07
2023-01-20T16:45:55.232Z,22.09
2023-01-20T16:48:23.479Z,22.09
2023-01-20T16:50:51.421Z,22.08
2023-01-20T16:53:19.887Z,22.09
2023-01-20T16:55:49.034Z,22.03
2023-01-20T16:58:16.942Z,22.09
2023-01-20T17:00:43.554Z,22.05
2023-01-20T17:03:10.290Z,22.04
2023-01-20T17:05:36.938Z,22.09
2023-01-20T17:08:04.189Z,22.04
2023-01-20T17:10:33.853Z,21.71
2023-01-20T17:13:00.822Z,21.80
2023-01-20T17:15:28.029Z,21.77
2023-01-20T17:17:58.612Z,22.07
2023-01-20T17:20:26.865Z,22.08
2023-01-20T17:22:59.496Z,22.03
2023-01-20T17:25:26.357Z,22.04
2023-01-20T17:27:53.124Z,22.03
2023-01-20T17:30:20.413Z,22.08
2023-01-20T17:32:48.258Z,22.04
2023-01-20T17:35:16.026Z,22.08
2023-01-20T17:37:43.307Z,22.08
2023-01-20T17:40:11.708Z,22.06
2023-01-20T17:42:39.258Z,22.04
2023-01-20T17:45:06.523Z,22.00
2023-01-20T17:47:33.165Z,22.03
2023-01-20T17:49:59.819Z,22.03
2023-01-20T17:52:28.001Z,21.90
2023-01-20T17:54:55.687Z,22.02
2023-01-20T17:57:22.193Z,22.01
2023-01-20T17:59:49.000Z,21.97
2023-01-20T18:02:18.443Z,21.97
2023-01-20T18:04:45.141Z,21.98
2023-01-20T18:07:11.738Z,21.94
2023-01-20T18:09:38.327Z,21.86
2023-01-20T18:12:05.220Z,21.96
2023-01-20T18:14:31.904Z,21.93
2023-01-20T18:16:58.450Z,21.94
2023-01-20T18:19:25.225Z,21.90
2023-01-20T18:21:51.906Z,21.87
2023-01-20T18:24:18.679Z,21.66
2023-01-20T18:26:45.269Z,21.65
2023-01-20T18:29:16.793Z,21.80
2023-01-20T18:31:46.307Z,21.89
2023-01-20T18:34:15.678Z,21.89
2023-01-20T18:36:49.223Z,21.89
2023-01-20T18:39:19.799Z,21.88
2023-01-20T18:41:47.616Z,21.81
2023-01-20T18:44:14.282Z,21.87
2023-01-20T18:46:41.103Z,21.87
2023-01-20T18:49:09.694Z,21.85
2023-01-20T18:51:36.995Z,21.85
2023-01-20T18:54:07.408Z,21.84
2023-01-20T18:56:34.535Z,21.81
2023-01-20T18:59:02.393Z,21.83
2023-01-20T19:01:33.621Z,21.76
2023-01-20T19:04:02.192Z,21.84
2023-01-20T19:06:34.385Z,21.84
2023-01-20T19:09:01.360Z,21.86
2023-01-20T19:11:31.816Z,21.74
2023-01-20T19:13:59.307Z,21.65
2023-01-20T19:16:34.273Z,21.87
2023-01-20T19:19:03.008Z,21.88
2023-01-20T19:21:36.577Z,21.88
2023-01-20T19:24:08.278Z,21.89
2023-01-20T19:26:37.429Z,21.72
2023-01-20T19:29:15.555Z,21.92
2023-01-20T19:31:42.653Z,21.84
2023-01-20T19:34:18.452Z,21.90
2023-01-20T19:36:54.911Z,21.89
2023-01-20T19:39:41.961Z,21.82
2023-01-20T19:42:13.651Z,21.91
2023-01-20T19:44:45.938Z,21.83
2023-01-20T19:47:19.860Z,21.83
2023-01-20T19:49:47.090Z,21.66
2023-01-20T19:52:13.872Z,21.89
2023-01-20T19:54:40.720Z,21.90
2023-01-20T19:57:15.538Z,21.89
2023-01-20T19:59:42.445Z,21.69
2023-01-20T20:02:12.195Z,21.52
2023-01-20T20:04:40.252Z,21.76
2023-01-20T20:07:11.563Z,21.61
2023-01-20T20:09:42.648Z,21.88
2023-01-20T20:12:12.644Z,21.87
2023-01-20T20:14:45.436Z,21.57
2023-01-20T20:17:18.016Z,21.69
2023-01-20T20:19:49.403Z,21.86
2023-01-20T20:22:16.008Z,21.77
2023-01-20T20:24:42.676Z,21.84
2023-01-20T20:27:09.634Z,21.82
2023-01-20T20:29:38.501Z,21.84
2023-01-20T20:32:05.479Z,21.85
2023-01-20T20:34:33.471Z,21.80
2023-01-20T20:37:00.355Z,21.84
2023-01-20T20:39:27.490Z,21.84
2023-01-20T20:41:55.625Z,21.81
2023-01-20T20:44:22.486Z,21.69
2023-01-20T20:46:52.168Z,21.81
2023-01-20T20:49:20.467Z,21.80
2023-01-20T20:51:52.305Z,21.58
2023-01-20T20:54:19.534Z,21.72
2023-01-20T20:56:46.473Z,21.75
2023-01-20T20:59:13.657Z,21.84
2023-01-20T21:01:43.462Z,21.83
2023-01-20T21:04:11.537Z,21.82
2023-01-20T21:06:38.236Z,21.73
2023-01-20T21:09:04.901Z,21.68
2023-01-20T21:11:38.387Z,21.52
2023-01-20T21:14:07.311Z,21.74
2023-01-20T21:16:34.654Z,21.61
2023-01-20T21:19:05.118Z,21.53
2023-01-20T21:21:32.007Z,21.77
2023-01-20T21:23:59.465Z,21.76
2023-01-20T21:26:30.020Z,21.77
2023-01-20T21:29:00.259Z,21.75
2023-01-20T21:31:27.059Z,21.41
2023-01-20T21:33:56.410Z,21.73
2023-01-20T21:36:23.348Z,21.73
2023-01-20T21:38:53.385Z,21.58
2023-01-20T21:41:20.741Z,21.72
2023-01-20T21:44:06.945Z,21.56
2023-01-20T21:46:39.917Z,21.70
2023-01-20T21:49:26.787Z,21.69
2023-01-20T21:52:13.551Z,21.67
2023-01-20T21:54:41.337Z,21.67
2023-01-20T21:57:08.222Z,21.62
2023-01-20T21:59:35.071Z,21.50
2023-01-20T22:02:02.034Z,21.51
2023-01-20T22:04:28.848Z,21.48
2023-01-20T22:06:55.416Z,21.44
2023-01-20T22:09:22.243Z,21.32
2023-01-20T22:11:50.032Z,21.32
2023-01-20T22:14:16.625Z,21.37
2023-01-20T22:16:43.285Z,21.65
2023-01-20T22:19:13.477Z,21.65
2023-01-20T22:21:40.409Z,21.65
2023-01-20T22:24:07.602Z,21.66
2023-01-20T22:26:34.299Z,21.66
2023-01-20T22:29:00.919Z,21.38
2023-01-20T22:31:28.669Z,21.57
2023-01-20T22:33:57.320Z,21.44
2023-01-20T22:36:24.704Z,21.68
2023-01-20T22:38:52.916Z,21.61
2023-01-20T22:41:20.504Z,21.68
2023-01-20T22:43:48.127Z,21.51
2023-01-20T22:46:17.352Z,21.67
2023-01-20T22:48:44.556Z,21.53
2023-01-20T22:51:13.946Z,21.43
2023-01-20T22:53:41.155Z,21.48
2023-01-20T22:56:12.564Z,21.68
2023-01-20T22:58:39.685Z,21.16
2023-01-20T23:01:13.573Z,21.53
2023-01-20T23:03:40.828Z,21.38
2023-01-20T23:06:07.723Z,21.68
2023-01-20T23:08:34.508Z,21.57
2023-01-20T23:11:05.111Z,21.57
2023-01-20T23:13:33.220Z,21.47
2023-01-20T23:15:59.779Z,21.68
2023-01-20T23:18:26.568Z,21.53
2023-01-20T23:20:54.215Z,21.61
2023-01-20T23:23:21.537Z,21.66
2023-01-20T23:25:48.376Z,21.45
2023-01-20T23:28:15.642Z,21.48
2023-01-20T23:30:43.050Z,21.69
2023-01-20T23:33:12.451Z,21.58
2023-01-20T23:35:39.140Z,21.47
2023-01-20T23:38:07.654Z,21.69
2023-01-20T23:40:35.218Z,21.68
2023-01-20T23:43:02.039Z,21.60
2023-01-20T23:45:28.788Z,21.64
2023-01-20T23:47:55.884Z,21.28
2023-01-20T23:50:22.600Z,21.44
2023-01-20T23:52:49.281Z,21.57
2023-01-20T23:55:15.965Z,21.63
2023-01-20T23:57:42.666Z,21.58
